createdAt,value
2018-11-13T00:00:39.414Z,74.49
2018-11-13T00:03:04.479Z,74.52
2018-11-13T00:05:29.852Z,73.43
2018-11-13T00:07:54.940Z,74.84
2018-11-13T00:10:20.050Z,74.24
2018-11-13T00:12:45.229Z,75.51
2018-11-13T00:15:10.698Z,74.54
2018-11-13T00:17:54.857Z,73.94
2018-11-13T00:20:20.275Z,75.28
2018-11-13T00:22:45.796Z,76.54
2018-11-13T00:25:12.307Z,76.01
2018-11-13T00:27:37.537Z,74.50
2018-11-13T00:30:02.617Z,73.88
2018-11-13T00:32:27.725Z,74.81
2018-11-13T00:34:52.827Z,73.54
2018-11-13T00:37:18.042Z,73.00
2018-11-13T00:39:43.139Z,73.42
2018-11-13T00:42:08.276Z,74.61
2018-11-13T00:44:33.402Z,73.99
2018-11-13T00:46:58.470Z,74.35
2018-11-13T00:49:23.715Z,73.81
2018-11-13T00:51:48.708Z,72.43
2018-11-13T00:54:13.799Z,73.51
2018-11-13T00:56:38.905Z,73.71
2018-11-13T00:59:03.999Z,73.08
2018-11-13T01:01:29.081Z,72.94
2018-11-13T01:03:54.189Z,73.82
2018-11-13T01:06:19.299Z,72.62
2018-11-13T01:08:44.389Z,72.06
2018-11-13T01:11:09.501Z,71.90
2018-11-13T01:13:34.575Z,72.11
2018-11-13T01:15:59.692Z,72.67
2018-11-13T01:18:24.780Z,72.62
2018-11-13T01:20:49.882Z,72.33
2018-11-13T01:23:15.088Z,72.60
2018-11-13T01:25:51.959Z,72.44
2018-11-13T01:28:17.089Z,73.00
2018-11-13T01:30:42.187Z,71.95
2018-11-13T01:33:07.318Z,72.49
2018-11-13T01:35:51.378Z,72.77
2018-11-13T01:38:16.461Z,72.26
2018-11-13T01:40:41.612Z,72.08
2018-11-13T01:43:25.644Z,71.72
2018-11-13T01:45:50.768Z,71.43
2018-11-13T01:48:34.795Z,71.80
2018-11-13T01:50:59.906Z,71.50
2018-11-13T01:53:43.950Z,72.36
2018-11-13T01:56:09.085Z,72.75
2018-11-13T01:58:34.391Z,73.54
2018-11-13T02:00:59.244Z,73.38
2018-11-13T02:03:24.328Z,72.99
2018-11-13T02:05:49.421Z,73.03
2018-11-13T02:08:14.536Z,73.02
2018-11-13T02:10:58.584Z,73.94
2018-11-13T02:13:23.688Z,73.43
2018-11-13T02:15:48.743Z,74.51
2018-11-13T02:18:13.819Z,73.20
2018-11-13T02:20:38.936Z,72.60
2018-11-13T02:23:03.995Z,72.58
2018-11-13T02:25:29.108Z,72.34
2018-11-13T02:27:54.166Z,73.37
2018-11-13T02:30:20.690Z,72.39
2018-11-13T02:32:46.394Z,73.05
2018-11-13T02:35:12.025Z,73.74
2018-11-13T02:37:37.232Z,72.52
2018-11-13T02:40:02.303Z,72.18
2018-11-13T02:42:27.355Z,73.31
2018-11-13T02:44:52.423Z,72.64
2018-11-13T02:47:17.516Z,72.70
2018-11-13T02:49:42.764Z,72.39
2018-11-13T02:52:07.743Z,73.33
2018-11-13T02:54:32.811Z,72.87
2018-11-13T02:56:57.916Z,72.45
2018-11-13T02:59:22.982Z,72.84
2018-11-13T03:01:48.108Z,73.35
2018-11-13T03:04:13.195Z,72.96
2018-11-13T03:06:57.267Z,72.58
2018-11-13T03:09:22.327Z,72.91
2018-11-13T03:11:47.418Z,72.96
2018-11-13T03:14:12.478Z,72.58
2018-11-13T03:16:56.542Z,72.96
2018-11-13T03:19:21.631Z,73.72
2018-11-13T03:21:46.872Z,73.85
2018-11-13T03:24:12.033Z,73.11
2018-11-13T03:26:37.173Z,73.61
2018-11-13T03:29:02.309Z,73.21
2018-11-13T03:31:27.492Z,73.81
2018-11-13T03:33:52.530Z,74.06
2018-11-13T03:36:17.663Z,74.38
2018-11-13T03:38:42.769Z,73.90
2018-11-13T03:46:40.051Z,74.87
2018-11-13T03:49:05.391Z,74.63
2018-11-13T03:51:30.564Z,76.43
2018-11-13T03:53:55.835Z,74.32
2018-11-13T03:56:20.965Z,74.61
2018-11-13T03:59:04.992Z,77.36
2018-11-13T04:01:30.140Z,75.21
2018-11-13T04:03:55.224Z,75.75
2018-11-13T04:06:32.003Z,74.91
2018-11-13T04:08:57.150Z,74.46
2018-11-13T04:11:22.251Z,74.22
2018-11-13T04:14:06.314Z,74.17
2018-11-13T04:16:50.369Z,74.20
2018-11-13T04:19:34.426Z,74.03
2018-11-13T04:22:18.476Z,74.19
2018-11-13T04:25:02.564Z,74.88
2018-11-13T04:27:27.671Z,74.08
2018-11-13T04:29:52.777Z,74.48
2018-11-13T04:32:17.909Z,73.07
2018-11-13T04:34:42.980Z,73.20
2018-11-13T04:37:27.003Z,73.43
2018-11-13T04:39:52.084Z,73.71
2018-11-13T04:42:17.184Z,74.05
2018-11-13T04:44:42.262Z,73.63
2018-11-13T04:47:07.474Z,73.37
2018-11-13T04:49:32.569Z,73.19
2018-11-13T04:51:57.681Z,73.17
2018-11-13T04:54:22.765Z,73.06
2018-11-13T04:59:24.240Z,73.87
2018-11-13T05:01:49.322Z,73.79
2018-11-13T05:04:14.395Z,73.05
2018-11-13T05:06:39.508Z,73.34
2018-11-13T05:09:05.421Z,73.35
2018-11-13T05:11:49.516Z,73.32
2018-11-13T05:14:33.566Z,74.10
2018-11-13T05:16:58.679Z,73.64
2018-11-13T05:19:23.785Z,73.67
2018-11-13T05:22:07.955Z,73.69
2018-11-13T05:24:33.036Z,74.04
2018-11-13T05:27:17.163Z,74.04
2018-11-13T05:29:42.297Z,76.18
2018-11-13T05:32:07.411Z,76.62
2018-11-13T05:34:32.652Z,76.24
2018-11-13T05:36:57.764Z,76.50
2018-11-13T05:39:22.853Z,76.67
2018-11-13T05:41:48.132Z,76.75
2018-11-13T05:44:13.177Z,77.40
2018-11-13T05:46:38.774Z,77.70
2018-11-13T05:49:03.911Z,76.70
2018-11-13T05:51:29.081Z,77.40
2018-11-13T05:53:54.224Z,77.61
2018-11-13T05:56:19.333Z,76.90
2018-11-13T05:58:44.457Z,76.44
2018-11-13T06:01:16.751Z,76.58
2018-11-13T06:03:45.100Z,76.69
2018-11-13T06:06:10.209Z,75.50
2018-11-13T06:11:33.463Z,75.35
2018-11-13T06:13:58.687Z,74.30
2018-11-13T06:16:23.790Z,75.39
2018-11-13T06:21:42.410Z,74.93
2018-11-13T06:24:07.524Z,74.27
2018-11-13T06:26:32.662Z,74.88
2018-11-13T06:31:52.855Z,75.44
2018-11-13T06:34:17.900Z,75.46
2018-11-13T06:39:41.136Z,77.37
2018-11-13T06:42:06.429Z,76.87
2018-11-13T06:44:31.526Z,76.29
2018-11-13T06:46:56.577Z,76.07
2018-11-13T06:49:21.689Z,76.92
2018-11-13T06:51:46.749Z,75.86
2018-11-13T06:54:52.682Z,76.02
2018-11-13T06:57:17.793Z,75.89
2018-11-13T06:59:42.861Z,75.32
2018-11-13T07:02:08.352Z,75.41
2018-11-13T07:04:33.427Z,76.14
2018-11-13T07:06:58.543Z,75.51
2018-11-13T07:09:23.627Z,75.19
2018-11-13T07:11:48.705Z,76.37
2018-11-13T07:14:13.811Z,76.91
2018-11-13T07:16:57.855Z,77.46
2018-11-13T07:19:22.948Z,77.92
2018-11-13T07:21:48.041Z,78.05
2018-11-13T07:24:13.159Z,76.90
2018-11-13T07:26:38.327Z,75.57
2018-11-13T07:29:03.475Z,76.22
2018-11-13T07:31:47.583Z,76.07
2018-11-13T07:34:12.690Z,76.52
2018-11-13T07:36:37.800Z,75.76
2018-11-13T07:39:02.933Z,76.21
2018-11-13T07:41:28.031Z,76.06
2018-11-13T07:43:53.165Z,75.00
2018-11-13T07:46:18.306Z,75.24
2018-11-13T07:48:43.397Z,75.92
2018-11-13T07:51:08.707Z,75.80
2018-11-13T07:53:34.042Z,75.84
2018-11-13T07:55:59.164Z,75.64
2018-11-13T07:58:24.250Z,75.28
2018-11-13T08:00:49.329Z,75.94
2018-11-13T08:03:34.904Z,76.55
2018-11-13T08:06:00.352Z,78.01
2018-11-13T08:08:25.446Z,77.20
2018-11-13T08:10:50.563Z,75.74
2018-11-13T08:13:15.949Z,75.68
2018-11-13T08:15:40.880Z,75.99
2018-11-13T08:18:05.909Z,76.71
2018-11-13T08:20:31.075Z,77.28
2018-11-13T08:22:56.172Z,77.55
2018-11-13T08:25:21.399Z,76.96
2018-11-13T08:30:22.744Z,78.29
2018-11-13T08:32:48.121Z,78.08
2018-11-13T08:35:13.224Z,77.48
2018-11-13T08:37:38.346Z,78.35
2018-11-13T08:40:03.444Z,77.83
2018-11-13T08:42:28.571Z,78.66
2018-11-13T08:44:53.686Z,77.67
2018-11-13T08:47:18.789Z,76.96
2018-11-13T08:49:43.923Z,76.94
2018-11-13T08:52:09.090Z,76.82
2018-11-13T08:54:34.162Z,76.86
2018-11-13T08:56:59.246Z,77.02
2018-11-13T08:59:24.425Z,76.93
2018-11-13T09:01:49.439Z,77.62
2018-11-13T09:04:33.508Z,77.63
2018-11-13T09:06:58.603Z,77.01
2018-11-13T09:09:23.710Z,77.00
2018-11-13T09:11:49.019Z,77.39
2018-11-13T09:14:13.941Z,76.92
2018-11-13T09:16:39.107Z,75.67
2018-11-13T09:19:04.242Z,76.14
2018-11-13T09:21:29.327Z,76.08
2018-11-13T09:23:54.452Z,76.46
2018-11-13T09:26:19.520Z,76.52
2018-11-13T09:28:44.626Z,76.31
2018-11-13T09:31:09.818Z,75.80
2018-11-13T09:33:35.428Z,75.24
2018-11-13T09:36:00.503Z,75.23
2018-11-13T09:38:25.573Z,74.75
2018-11-13T09:40:50.718Z,75.40
2018-11-13T09:43:15.816Z,75.34
2018-11-13T09:45:40.950Z,75.69
2018-11-13T09:48:06.346Z,74.34
2018-11-13T09:50:31.524Z,74.78
2018-11-13T09:52:56.595Z,75.09
2018-11-13T09:55:22.847Z,74.48
2018-11-13T09:57:47.999Z,74.44
2018-11-13T10:00:15.913Z,73.93
2018-11-13T10:02:41.413Z,75.81
2018-11-13T10:05:07.361Z,75.43
2018-11-13T10:07:31.669Z,75.84
2018-11-13T10:09:56.753Z,74.56
2018-11-13T10:12:21.832Z,73.22
2018-11-13T10:14:46.935Z,72.82
2018-11-13T10:17:12.033Z,72.20
2018-11-13T10:19:37.096Z,72.42
2018-11-13T10:22:02.209Z,71.46
2018-11-13T10:24:27.308Z,69.50
2018-11-13T10:26:54.667Z,70.99
2018-11-13T10:29:19.789Z,71.00
2018-11-13T10:31:44.852Z,69.71
2018-11-13T10:34:09.949Z,71.16
2018-11-13T10:36:35.039Z,71.49
2018-11-13T10:39:00.144Z,71.07
2018-11-13T10:41:25.715Z,72.23
2018-11-13T10:43:50.721Z,71.44
2018-11-13T10:46:15.816Z,70.60
2018-11-13T10:51:17.537Z,70.39
2018-11-13T10:53:42.648Z,69.32
2018-11-13T10:56:08.776Z,69.94
2018-11-13T10:58:45.609Z,70.05
2018-11-13T11:01:29.431Z,69.97
2018-11-13T11:04:13.247Z,68.68
2018-11-13T11:06:38.393Z,65.59
2018-11-13T11:09:04.550Z,65.32
2018-11-13T11:11:29.715Z,63.55
2018-11-13T11:13:54.891Z,59.74
2018-11-13T11:16:19.813Z,57.16
2018-11-13T11:18:45.018Z,56.59
2018-11-13T11:21:10.065Z,55.22
2018-11-13T11:23:35.374Z,54.09
2018-11-13T11:26:00.265Z,50.97
2018-11-13T11:28:25.349Z,59.54
2018-11-13T11:30:50.474Z,62.20
2018-11-13T11:33:15.522Z,64.13
2018-11-13T11:35:40.616Z,64.65
2018-11-13T11:38:06.129Z,65.56
2018-11-13T11:40:31.217Z,64.44
2018-11-13T11:42:56.325Z,63.69
2018-11-13T11:45:21.403Z,63.07
2018-11-13T11:48:05.452Z,64.34
2018-11-13T11:50:49.517Z,65.55
2018-11-13T11:53:14.617Z,65.11
2018-11-13T11:55:58.639Z,65.22
2018-11-13T11:58:23.795Z,65.87
2018-11-13T12:00:49.030Z,67.48
2018-11-13T12:03:13.967Z,68.00
2018-11-13T12:05:39.090Z,68.37
2018-11-13T12:08:04.204Z,67.95
2018-11-13T12:10:29.354Z,64.57
2018-11-13T12:12:54.433Z,65.53
2018-11-13T12:15:19.495Z,64.38
2018-11-13T12:17:45.126Z,55.68
2018-11-13T12:20:11.840Z,49.79
2018-11-13T12:22:36.980Z,48.54
2018-11-13T12:25:02.093Z,48.88
2018-11-13T12:27:27.207Z,48.97
2018-11-13T12:29:52.326Z,43.87
2018-11-13T12:32:17.459Z,43.62
2018-11-13T12:34:42.718Z,44.55
2018-11-13T12:37:07.700Z,46.85
2018-11-13T12:39:32.789Z,47.15
2018-11-13T12:41:57.884Z,56.66
2018-11-13T12:44:22.951Z,51.06
2018-11-13T12:46:48.083Z,53.04
2018-11-13T12:49:15.044Z,58.33
2018-11-13T12:54:33.777Z,61.26
2018-11-13T12:56:58.882Z,62.45
2018-11-13T12:59:24.006Z,62.94
2018-11-13T13:01:49.083Z,62.03
2018-11-13T13:04:14.159Z,62.65
2018-11-13T13:06:39.310Z,62.11
2018-11-13T13:09:04.898Z,62.67
2018-11-13T13:11:30.018Z,62.29
2018-11-13T13:14:13.820Z,62.56
2018-11-13T13:16:57.867Z,62.96
2018-11-13T13:19:22.962Z,62.77
2018-11-13T13:21:48.116Z,62.19
2018-11-13T13:24:16.637Z,61.37
2018-11-13T13:26:41.798Z,62.60
2018-11-13T13:29:07.380Z,61.28
2018-11-13T13:31:51.499Z,62.58
2018-11-13T13:34:16.921Z,62.62
2018-11-13T13:36:42.025Z,62.63
2018-11-13T13:39:09.488Z,61.95
2018-11-13T13:41:36.219Z,61.12
2018-11-13T13:44:01.348Z,62.67
2018-11-13T13:49:25.632Z,61.89
2018-11-13T13:51:50.763Z,61.21
2018-11-13T13:54:15.911Z,61.01
2018-11-13T13:56:41.046Z,62.53
2018-11-13T13:59:06.243Z,62.35
2018-11-13T14:01:31.362Z,62.42
2018-11-13T14:03:56.482Z,62.02
2018-11-13T14:06:21.634Z,62.83
2018-11-13T14:08:46.735Z,62.40
2018-11-13T14:13:48.439Z,63.05
2018-11-13T14:16:13.591Z,65.90
2018-11-13T14:18:57.628Z,67.35
2018-11-13T14:21:22.739Z,68.23
2018-11-13T14:23:47.859Z,69.14
2018-11-13T14:26:12.951Z,70.49
2018-11-13T14:28:38.071Z,70.47
2018-11-13T14:31:03.126Z,70.12
2018-11-13T14:33:28.227Z,72.04
2018-11-13T14:35:53.337Z,71.74
2018-11-13T14:40:55.144Z,73.58
2018-11-13T14:43:20.226Z,73.59
2018-11-13T14:45:45.514Z,72.24
2018-11-13T14:48:11.108Z,73.85
2018-11-13T14:50:36.588Z,70.87
2018-11-13T14:55:39.618Z,72.63
2018-11-13T14:58:05.492Z,71.97
2018-11-13T15:00:31.633Z,70.99
2018-11-13T15:02:57.343Z,72.18
2018-11-13T15:05:23.176Z,71.66
2018-11-13T15:08:08.126Z,72.64
2018-11-13T15:10:53.390Z,72.61
2018-11-13T15:13:18.963Z,73.13
2018-11-13T15:15:44.069Z,72.11
2018-11-13T15:18:09.671Z,71.27
2018-11-13T15:20:34.741Z,70.70
2018-11-13T15:22:59.837Z,69.97
2018-11-13T15:25:24.924Z,69.94
2018-11-13T15:27:50.033Z,71.32
2018-11-13T15:30:34.661Z,70.65
2018-11-13T15:33:04.153Z,70.75
2018-11-13T15:35:29.291Z,71.36
2018-11-13T15:40:31.179Z,70.55
2018-11-13T15:42:56.246Z,70.15
2018-11-13T15:45:21.782Z,68.65
2018-11-13T15:47:47.675Z,69.78
2018-11-13T15:50:35.125Z,70.84
2018-11-13T15:53:00.257Z,70.28
2018-11-13T15:55:25.369Z,70.40
2018-11-13T15:57:50.690Z,69.81
2018-11-13T16:06:11.583Z,69.70
2018-11-13T16:08:36.590Z,69.73
2018-11-13T16:11:01.704Z,70.07
2018-11-13T16:13:45.746Z,70.41
2018-11-13T16:16:10.879Z,71.34
2018-11-13T16:18:36.030Z,71.51
2018-11-13T16:21:01.172Z,71.98
2018-11-13T16:23:45.108Z,71.31
2018-11-13T16:26:10.242Z,70.57
2018-11-13T16:28:35.379Z,70.80
2018-11-13T16:31:00.565Z,70.49
2018-11-13T16:33:25.578Z,70.71
2018-11-13T16:35:50.694Z,70.01
2018-11-13T16:38:15.981Z,70.42
2018-11-13T16:40:41.207Z,70.43
2018-11-13T16:43:06.213Z,70.44
2018-11-13T16:45:32.419Z,71.53
2018-11-13T16:47:58.210Z,70.73
2018-11-13T16:50:24.321Z,71.85
2018-11-13T16:52:49.486Z,72.48
2018-11-13T16:55:33.726Z,73.15
2018-11-13T16:57:59.670Z,72.29
2018-11-13T17:00:25.111Z,72.88
2018-11-13T17:03:09.138Z,72.64
2018-11-13T17:05:34.301Z,72.93
2018-11-13T17:07:59.341Z,71.63
2018-11-13T17:10:25.852Z,72.07
2018-11-13T17:12:51.427Z,72.06
2018-11-13T17:15:21.354Z,72.49
2018-11-13T17:17:47.269Z,72.44
2018-11-13T17:20:13.231Z,72.11
2018-11-13T17:22:39.129Z,71.87
2018-11-13T17:25:04.642Z,71.20
2018-11-13T17:27:29.808Z,72.08
2018-11-13T17:30:14.708Z,72.22
2018-11-13T17:32:39.957Z,72.50
2018-11-13T17:35:05.064Z,71.75
2018-11-13T17:37:30.171Z,71.70
2018-11-13T17:39:55.328Z,72.31
2018-11-13T17:44:56.452Z,72.05
2018-11-13T17:47:40.517Z,72.05
2018-11-13T17:50:08.845Z,73.08
2018-11-13T17:52:33.916Z,73.11
2018-11-13T17:54:59.059Z,72.70
2018-11-13T17:57:24.229Z,73.77
2018-11-13T17:59:49.372Z,72.26
2018-11-13T18:02:14.592Z,72.59
2018-11-13T18:04:39.872Z,71.90
2018-11-13T18:07:05.023Z,71.47
2018-11-13T18:09:30.140Z,71.47
2018-11-13T18:11:55.216Z,72.02
2018-11-13T18:14:20.466Z,72.77
2018-11-13T18:16:45.462Z,72.37
2018-11-13T18:19:10.638Z,72.71
2018-11-13T18:21:35.853Z,72.67
2018-11-13T18:24:00.867Z,72.39
2018-11-13T18:26:26.005Z,72.96
2018-11-13T18:28:51.122Z,72.49
2018-11-13T18:31:16.268Z,73.07
2018-11-13T18:33:41.379Z,73.20
2018-11-13T18:36:06.979Z,73.03
2018-11-13T18:38:32.276Z,73.30
2018-11-13T18:40:57.277Z,73.26
2018-11-13T18:43:22.407Z,73.40
2018-11-13T18:45:47.557Z,73.15
2018-11-13T18:48:12.749Z,73.53
2018-11-13T18:50:56.861Z,72.93
2018-11-13T18:53:22.003Z,73.02
2018-11-13T18:55:47.091Z,72.97
2018-11-13T18:58:12.268Z,72.01
2018-11-13T19:00:38.662Z,72.34
2018-11-13T19:03:04.821Z,72.64
2018-11-13T19:05:48.944Z,73.40
2018-11-13T19:08:14.095Z,72.67
2018-11-13T19:10:57.999Z,73.13
2018-11-13T19:13:24.709Z,72.83
2018-11-13T19:15:57.398Z,72.74
2018-11-13T19:18:22.823Z,72.97
2018-11-13T19:20:48.009Z,72.76
2018-11-13T19:25:51.097Z,73.41
2018-11-13T19:28:16.297Z,73.35
2018-11-13T19:30:41.416Z,73.06
2018-11-13T19:33:06.598Z,72.84
2018-11-13T19:35:31.968Z,72.24
2018-11-13T19:37:56.862Z,72.96
2018-11-13T19:40:40.680Z,72.77
2018-11-13T19:43:07.252Z,72.69
2018-11-13T19:45:32.351Z,72.49
2018-11-13T19:48:16.479Z,72.24
2018-11-13T19:53:17.913Z,72.54
2018-11-13T19:55:43.041Z,72.27
2018-11-13T19:58:08.634Z,72.54
2018-11-13T20:00:35.221Z,72.93
2018-11-13T20:03:19.090Z,73.14
2018-11-13T20:05:44.287Z,72.72
2018-11-13T20:10:46.511Z,72.79
2018-11-13T20:13:11.899Z,72.84
2018-11-13T20:15:37.575Z,72.31
2018-11-13T20:18:02.769Z,72.62
2018-11-13T20:20:46.617Z,72.82
2018-11-13T20:23:11.770Z,73.15
2018-11-13T20:25:37.231Z,72.80
2018-11-13T20:28:02.508Z,73.96
2018-11-13T20:30:29.083Z,73.48
2018-11-13T20:32:54.203Z,73.14
2018-11-13T20:38:14.912Z,73.23
2018-11-13T20:40:40.118Z,73.12
2018-11-13T20:43:06.747Z,73.77
2018-11-13T20:45:50.825Z,73.85
2018-11-13T20:48:16.017Z,73.79
2018-11-13T20:50:41.267Z,73.53
2018-11-13T20:53:06.385Z,74.39
2018-11-13T20:55:31.543Z,74.23
2018-11-13T20:57:56.800Z,73.81
2018-11-13T21:00:40.637Z,73.96
2018-11-13T21:03:05.970Z,73.73
2018-11-13T21:05:31.078Z,74.10
2018-11-13T21:07:56.378Z,74.15
2018-11-13T21:10:22.339Z,74.40
2018-11-13T21:15:43.153Z,74.42
2018-11-13T21:18:08.300Z,74.21
2018-11-13T21:20:33.448Z,75.26
2018-11-13T21:23:17.543Z,74.16
2018-11-13T21:25:42.628Z,74.93
2018-11-13T21:28:07.776Z,74.25
2018-11-13T21:30:32.993Z,74.61
2018-11-13T21:32:58.068Z,74.11
2018-11-13T21:35:23.149Z,74.12
2018-11-13T21:37:49.744Z,74.67
2018-11-13T21:40:18.639Z,74.72
2018-11-13T21:42:44.513Z,74.60
2018-11-13T21:45:10.449Z,74.52
2018-11-13T21:50:13.783Z,73.84
2018-11-13T21:52:38.927Z,74.32
2018-11-13T21:55:04.104Z,74.27
2018-11-13T21:57:29.213Z,74.23
2018-11-13T21:59:54.454Z,74.93
2018-11-13T22:02:19.553Z,75.42
2018-11-13T22:05:03.741Z,75.35
2018-11-13T22:07:28.859Z,74.97
2018-11-13T22:09:53.978Z,74.72
2018-11-13T22:12:19.063Z,73.89
2018-11-13T22:14:44.174Z,74.16
2018-11-13T22:17:09.306Z,73.71
2018-11-13T22:19:53.371Z,74.28
2018-11-13T22:22:18.528Z,73.76
2018-11-13T22:24:43.574Z,74.38
2018-11-13T22:27:08.769Z,74.09
2018-11-13T22:29:33.770Z,73.73
2018-11-13T22:31:58.834Z,73.79
2018-11-13T22:34:23.928Z,74.42
2018-11-13T22:36:49.041Z,73.54
2018-11-13T22:39:14.144Z,73.63
2018-11-13T22:41:39.228Z,73.94
2018-11-13T22:44:04.289Z,73.67
2018-11-13T22:46:29.388Z,73.64
2018-11-13T22:48:54.443Z,74.14
2018-11-13T22:51:19.544Z,73.45
2018-11-13T22:53:44.633Z,72.90
2018-11-13T22:56:09.729Z,74.31
2018-11-13T22:58:34.858Z,73.32
2018-11-13T23:01:00.048Z,73.24
2018-11-13T23:03:25.016Z,73.37
2018-11-13T23:06:09.086Z,73.17
2018-11-13T23:08:34.172Z,73.37
2018-11-13T23:11:12.510Z,73.10
2018-11-13T23:13:37.594Z,72.75
2018-11-13T23:16:02.653Z,72.15
2018-11-13T23:18:27.741Z,73.95
2018-11-13T23:20:52.832Z,73.28
2018-11-13T23:23:17.926Z,73.37
2018-11-13T23:25:43.006Z,73.79
2018-11-13T23:28:08.195Z,74.10
2018-11-13T23:30:33.198Z,73.92
2018-11-13T23:33:17.228Z,73.52
2018-11-13T23:35:42.329Z,73.83
2018-11-13T23:38:07.406Z,74.07
2018-11-13T23:40:32.533Z,73.93
2018-11-13T23:42:57.574Z,74.09
2018-11-13T23:45:23.781Z,73.87
2018-11-13T23:47:49.186Z,72.57
2018-11-13T23:50:14.403Z,73.14
2018-11-13T23:52:39.512Z,73.15
2018-11-13T23:55:04.743Z,72.97
2018-11-13T23:57:29.816Z,72.99
2018-11-13T23:59:54.975Z,72.55
